createdAt,value
2022-11-02T00:03:58.684Z,101107.28
2022-11-02T00:09:24.655Z,101106.63
2022-11-02T00:14:50.211Z,101100.91
2022-11-02T00:20:19.441Z,101090.72
2022-11-02T00:25:50.976Z,101088.84
2022-11-02T00:31:16.122Z,101094.84
2022-11-02T00:36:41.172Z,101088.47
2022-11-02T00:42:07.490Z,101084.66
2022-11-02T00:47:32.024Z,101082.34
2022-11-02T00:52:57.541Z,101072.75
2022-11-02T00:58:23.544Z,101083.44
2022-11-02T01:03:48.770Z,101076.59
2022-11-02T01:09:15.365Z,101070.53
2022-11-02T01:14:41.117Z,101072.75
2022-11-02T01:20:06.505Z,101079.47
2022-11-02T01:25:31.375Z,101075.19
2022-11-02T01:30:59.012Z,101070.81
2022-11-02T01:36:25.224Z,101072.88
2022-11-02T01:41:53.723Z,101074.66
2022-11-02T01:47:25.486Z,101075.66
2022-11-02T01:52:49.528Z,101059.47
2022-11-02T01:58:14.327Z,101055.47
2022-11-02T02:03:42.419Z,101062.28
2022-11-02T02:09:09.461Z,101064.94
2022-11-02T02:14:35.494Z,101058.69
2022-11-02T02:20:10.801Z,101062.19
2022-11-02T02:26:05.169Z,101066.72
2022-11-02T02:31:38.456Z,101048.88
2022-11-02T02:37:06.944Z,101060.59
2022-11-02T02:42:37.808Z,101069.34
2022-11-02T02:48:10.576Z,101061.28
2022-11-02T02:53:40.220Z,101067.69
2022-11-02T02:59:07.549Z,101067.44
2022-11-02T03:04:33.567Z,101063.38
2022-11-02T03:10:07.644Z,101070.97
2022-11-02T03:15:38.696Z,101060.16
2022-11-02T03:21:18.506Z,101055.47
2022-11-02T03:26:50.540Z,101046.00
2022-11-02T03:32:24.670Z,101052.09
2022-11-02T03:37:56.813Z,101032.22
2022-11-02T03:43:23.007Z,101026.81
2022-11-02T03:48:52.278Z,101027.53
2022-11-02T03:54:23.222Z,101028.25
2022-11-02T03:59:47.534Z,101023.84
2022-11-02T04:05:11.597Z,101011.06
2022-11-02T04:10:57.001Z,101014.25
2022-11-02T04:16:26.624Z,101008.84
2022-11-02T04:22:12.578Z,101010.78
2022-11-02T04:27:40.183Z,101007.84
2022-11-02T04:33:27.307Z,100987.13
2022-11-02T04:39:01.145Z,100992.97
2022-11-02T04:44:29.085Z,100984.03
2022-11-02T04:50:09.798Z,100982.94
2022-11-02T04:55:34.686Z,100972.31
2022-11-02T05:01:00.018Z,100977.69
2022-11-02T05:06:25.312Z,100973.50
2022-11-02T05:11:51.119Z,100968.97
2022-11-02T05:17:16.505Z,100959.59
2022-11-02T05:22:43.516Z,100963.06
2022-11-02T05:28:10.762Z,100969.19
2022-11-02T05:33:38.136Z,100971.47
2022-11-02T05:39:10.518Z,100956.50
2022-11-02T05:44:35.595Z,100958.78
2022-11-02T05:50:02.780Z,100956.56
2022-11-02T05:55:28.934Z,100956.19
2022-11-02T06:00:53.594Z,100945.34
2022-11-02T06:06:19.933Z,100939.09
2022-11-02T06:11:44.618Z,100944.59
2022-11-02T06:17:09.524Z,100936.16
2022-11-02T06:22:41.458Z,100930.59
2022-11-02T06:28:08.953Z,100922.34
2022-11-02T06:33:34.130Z,100913.28
2022-11-02T06:38:59.936Z,100909.63
2022-11-02T06:44:23.771Z,100903.28
2022-11-02T06:49:48.003Z,100898.25
2022-11-02T06:55:14.867Z,100902.59
2022-11-02T07:00:39.002Z,100882.41
2022-11-02T07:06:12.789Z,100873.69
2022-11-02T07:11:40.150Z,100861.78
2022-11-02T07:17:06.079Z,100866.41
2022-11-02T07:22:30.267Z,100839.41
2022-11-02T07:27:56.197Z,100842.88
2022-11-02T07:33:20.519Z,100852.59
2022-11-02T07:38:45.169Z,100845.53
2022-11-02T07:44:12.683Z,100863.31
2022-11-02T07:49:59.168Z,100851.66
2022-11-02T07:55:26.351Z,100849.31
2022-11-02T08:00:55.926Z,100838.94
2022-11-02T08:06:25.080Z,100825.84
2022-11-02T08:11:49.996Z,100822.28
2022-11-02T08:17:16.921Z,100821.09
2022-11-02T08:22:43.875Z,100824.94
2022-11-02T08:28:12.191Z,100814.94
2022-11-02T08:33:38.531Z,100805.97
2022-11-02T08:39:02.331Z,100802.81
2022-11-02T08:44:26.412Z,100787.47
2022-11-02T08:49:52.953Z,100776.28
2022-11-02T08:55:17.293Z,100764.53
2022-11-02T09:00:41.359Z,100755.44
2022-11-02T09:06:07.135Z,100755.00
2022-11-02T09:11:31.655Z,100745.91
2022-11-02T09:16:55.649Z,100737.41
2022-11-02T09:22:22.634Z,100732.81
2022-11-02T09:27:51.530Z,100726.88
2022-11-02T09:33:19.310Z,100719.53
2022-11-02T09:38:46.256Z,100706.13
2022-11-02T09:44:16.121Z,100717.00
2022-11-02T09:49:44.199Z,100706.16
2022-11-02T09:55:19.703Z,100681.75
2022-11-02T10:00:48.980Z,100678.78
2022-11-02T10:06:16.576Z,100677.47
2022-11-02T10:11:48.737Z,100677.00
2022-11-02T10:17:18.690Z,100673.34
2022-11-02T10:22:43.996Z,100666.41
2022-11-02T10:28:17.100Z,100656.22
2022-11-02T10:33:42.072Z,100649.75
2022-11-02T10:39:16.233Z,100642.44
2022-11-02T10:45:01.542Z,100632.34
2022-11-02T10:50:46.645Z,100631.75
2022-11-02T10:56:17.597Z,100621.44
2022-11-02T11:02:04.442Z,100609.25
2022-11-02T11:07:29.639Z,100602.47
2022-11-02T11:12:53.558Z,100598.41
2022-11-02T11:24:26.220Z,100584.09
2022-11-02T11:29:53.641Z,100585.22
2022-11-02T11:35:21.479Z,100583.44
2022-11-02T11:40:53.845Z,100586.19
2022-11-02T11:46:21.570Z,100568.78
2022-11-02T11:51:51.608Z,100563.28
2022-11-02T11:57:28.430Z,100561.69
2022-11-02T12:03:06.203Z,100565.34
2022-11-02T12:08:45.314Z,100562.19
2022-11-02T12:14:25.551Z,100551.09
2022-11-02T12:20:08.859Z,100552.06
2022-11-02T12:25:48.409Z,100549.38
2022-11-02T12:31:17.749Z,100539.78
2022-11-02T12:37:31.671Z,100526.19
2022-11-02T12:42:53.829Z,100523.03
2022-11-02T12:48:25.881Z,100512.91
2022-11-02T12:53:56.738Z,100510.31
2022-11-02T12:59:28.292Z,100501.31
2022-11-02T13:04:59.396Z,100503.19
2022-11-02T13:10:30.523Z,100491.88
2022-11-02T13:16:00.946Z,100492.63
2022-11-02T13:21:39.821Z,100488.03
2022-11-02T13:27:35.910Z,100485.25
2022-11-02T13:33:06.519Z,100481.06
2022-11-02T13:38:47.194Z,100476.78
2022-11-02T13:44:35.128Z,100481.00
2022-11-02T13:50:04.284Z,100478.88
2022-11-02T13:55:45.716Z,100492.16
2022-11-02T14:01:21.798Z,100489.22
2022-11-02T14:06:52.784Z,100480.25
2022-11-02T14:12:40.507Z,100466.66
2022-11-02T14:18:16.805Z,100464.09
2022-11-02T14:23:44.878Z,100469.09
2022-11-02T14:29:49.181Z,100457.84
2022-11-02T14:35:33.895Z,100466.22
2022-11-02T14:41:16.355Z,100454.03
2022-11-02T14:46:58.123Z,100453.22
2022-11-02T14:52:29.124Z,100459.41
2022-11-02T14:57:58.504Z,100447.41
2022-11-02T15:03:33.950Z,100458.28
2022-11-02T15:09:00.890Z,100468.03
2022-11-02T15:14:56.582Z,100469.69
2022-11-02T15:20:31.715Z,100470.75
2022-11-02T15:25:59.905Z,100471.19
2022-11-02T15:31:31.578Z,100471.34
2022-11-02T15:37:02.320Z,100471.81
2022-11-02T15:42:39.313Z,100467.59
2022-11-02T15:48:18.772Z,100469.47
2022-11-02T15:54:19.869Z,100486.88
2022-11-02T16:00:01.418Z,100478.91
2022-11-02T16:05:43.791Z,100491.84
2022-11-02T16:11:17.288Z,100491.78
2022-11-02T16:16:48.713Z,100496.31
2022-11-02T16:22:24.140Z,100510.50
2022-11-02T16:27:49.723Z,100506.72
2022-11-02T16:33:14.127Z,100513.41
2022-11-02T16:38:47.792Z,100517.19
2022-11-02T16:44:20.979Z,100525.31
2022-11-02T16:49:59.728Z,100534.50
2022-11-02T16:55:38.432Z,100530.13
2022-11-02T17:01:06.827Z,100526.81
2022-11-02T17:06:30.393Z,100529.81
2022-11-02T17:11:59.104Z,100536.97
2022-11-02T17:17:38.895Z,100542.69
2022-11-02T17:23:05.536Z,100532.53
2022-11-02T17:28:45.166Z,100541.97
2022-11-02T17:34:11.492Z,100538.69
2022-11-02T17:39:38.044Z,100539.78
2022-11-02T17:45:24.390Z,100538.53
2022-11-02T17:50:48.636Z,100533.97
2022-11-02T17:56:14.655Z,100542.31
2022-11-02T18:01:42.476Z,100533.34
2022-11-02T18:07:08.219Z,100527.69
2022-11-02T18:12:32.916Z,100484.66
2022-11-02T18:18:00.205Z,100506.19
2022-11-02T18:23:24.452Z,100506.63
2022-11-02T18:28:58.345Z,100511.59
2022-11-02T18:34:26.086Z,100524.94
2022-11-02T18:39:50.295Z,100526.00
2022-11-02T18:45:18.880Z,100525.34
2022-11-02T18:50:44.662Z,100521.16
2022-11-02T18:56:10.522Z,100540.53
2022-11-02T19:01:34.568Z,100541.56
2022-11-02T19:07:17.695Z,100551.16
2022-11-02T19:12:43.760Z,100554.53
2022-11-02T19:18:07.807Z,100564.75
2022-11-02T19:23:37.099Z,100555.34
2022-11-02T19:29:06.581Z,100557.03
2022-11-02T19:34:31.843Z,100560.34
2022-11-02T19:39:57.837Z,100565.16
2022-11-02T19:45:22.553Z,100577.06
2022-11-02T19:50:47.313Z,100581.69
2022-11-02T19:56:16.134Z,100578.31
2022-11-02T20:01:43.750Z,100573.75
2022-11-02T20:07:10.148Z,100582.53
2022-11-02T20:12:37.153Z,100593.81
2022-11-02T20:18:18.397Z,100595.28
2022-11-02T20:23:46.003Z,100606.94
2022-11-02T20:29:15.349Z,100604.66
2022-11-02T20:34:42.815Z,100614.22
2022-11-02T20:40:10.144Z,100612.16
2022-11-02T20:45:38.537Z,100620.69
2022-11-02T20:51:03.400Z,100619.03
2022-11-02T20:56:27.894Z,100606.50
2022-11-02T21:01:53.962Z,100626.31
2022-11-02T21:07:18.310Z,100619.19
2022-11-02T21:13:00.220Z,100629.97
2022-11-02T21:18:25.832Z,100631.44
2022-11-02T21:23:50.126Z,100628.28
2022-11-02T21:29:14.772Z,100625.13
2022-11-02T21:34:40.047Z,100634.88
2022-11-02T21:40:06.472Z,100639.00
2022-11-02T21:45:34.966Z,100634.81
2022-11-02T21:51:05.728Z,100642.19
2022-11-02T21:56:31.797Z,100646.84
2022-11-02T22:01:56.018Z,100660.69
2022-11-02T22:07:22.273Z,100648.59
2022-11-02T22:13:05.027Z,100656.88
2022-11-02T22:18:29.416Z,100665.91
2022-11-02T22:23:54.939Z,100670.53
2022-11-02T22:29:20.134Z,100676.84
2022-11-02T22:34:44.705Z,100686.75
2022-11-02T22:40:11.301Z,100693.59
2022-11-02T22:45:35.400Z,100689.97
2022-11-02T22:51:01.283Z,100698.47
2022-11-02T22:56:26.663Z,100705.47
2022-11-02T23:01:51.787Z,100716.09
2022-11-02T23:07:16.102Z,100711.84
2022-11-02T23:12:46.692Z,100726.06
2022-11-02T23:18:10.464Z,100733.72
2022-11-02T23:23:52.822Z,100720.59
2022-11-02T23:29:41.864Z,100723.41
2022-11-02T23:35:28.720Z,100718.00
2022-11-02T23:40:57.407Z,100715.50
2022-11-02T23:46:22.512Z,100738.28
2022-11-02T23:52:03.455Z,100731.47
2022-11-02T23:57:28.273Z,100732.22
